Terminal Aerodrome Forecast
Issued by NWS

Home | Current Version | Previous Version | Text Only | Print | Product List | Glossary On
Versions: 1 2 3 4 5 6 7 8 9 10 11 12 13 14 15 16 17 18 19 20 21 22 23 24 25 26 27 28 29
000
FTUS42 KCAE 221120
TAFDNL
TAF
KDNL 221120Z 2212/2312 10006KT P6SM OVC070
     FM221600 12012KT P6SM OVC050
      TEMPO 2219/2223 5SM -SHRA
     FM222300 12012KT 5SM -RA OVC015=

USA.gov is the U.S. government's official web portal to all federal, state and local government web resources and services.